Time;durP1;ratioP1;P1;durP2;ratioP2;P2;SDS_P1;SDS_P2;PMS_P1;PMS_P2;Temp;Humidity;BMP_temperature;BMP_pressure;BME280_temperature;BME280_humidity;BME280_pressure;Samples;Min_cycle;Max_cycle;Signal;HPM_P1;HPM_P2
2023/03/17 00:01:38;;;;;;;21.70;17.60;;;;;;;9.43;94.71;100525.20;109144;1260;65616;-96
2023/03/17 00:04:26;;;;;;;19.00;15.40;;;;;;;9.30;94.59;100521.70;108945;1264;72584;-96
2023/03/17 00:07:15;;;;;;;24.60;16.90;;;;;;;9.28;95.13;100531.29;107993;1263;60524;-96
2023/03/17 00:09:58;;;;;;;22.80;17.80;;;;;;;9.30;95.88;100533.56;107337;1267;61584;-96
2023/03/17 00:12:27;;;;;;;22.30;16.10;;;;;;;9.35;95.80;100534.02;107516;1264;73630;-93
2023/03/17 00:15:02;;;;;;;22.90;17.10;;;;;;;9.32;95.63;100532.97;108581;1263;63208;-95
2023/03/17 00:17:56;;;;;;;19.00;16.10;;;;;;;9.28;95.56;100539.28;108350;1263;71874;-96
2023/03/17 00:20:32;;;;;;;20.50;15.90;;;;;;;9.28;95.79;100541.02;107438;1271;62007;-96
2023/03/17 00:23:11;;;;;;;21.70;16.00;;;;;;;9.27;95.93;100538.46;107686;1265;59344;-96
2023/03/17 00:26:16;;;;;;;20.30;15.60;;;;;;;9.26;95.90;100544.98;108358;1265;74123;-96
2023/03/17 00:28:54;;;;;;;23.70;15.60;;;;;;;9.17;95.98;100544.41;107990;1265;63964;-96
2023/03/17 00:31:26;;;;;;;18.50;15.10;;;;;;;9.14;96.46;100540.25;107940;1265;72606;-95
2023/03/17 00:34:45;;;;;;;22.70;16.80;;;;;;;9.16;96.72;100543.42;107666;1265;63641;-95
2023/03/17 00:40:59;;;;;;;19.60;15.30;;;;;;;9.11;96.68;100541.95;108372;1268;71012;-96
2023/03/17 00:44:31;;;;;;;22.30;17.50;;;;;;;9.03;97.60;100530.89;108759;1264;62080;-96
2023/03/17 00:47:42;;;;;;;22.30;15.00;;;;;;;9.11;98.25;100541.61;108873;1255;71444;-95
2023/03/17 00:50:54;;;;;;;21.00;15.60;;;;;;;9.21;98.46;100543.19;108989;1264;61313;-95
2023/03/17 00:53:41;;;;;;;22.00;17.80;;;;;;;9.27;98.12;100539.70;108888;1264;61012;-95
2023/03/17 00:56:26;;;;;;;19.80;16.50;;;;;;;9.31;97.91;100541.92;108774;1264;73001;-95
2023/03/17 00:58:56;;;;;;;21.40;17.30;;;;;;;9.34;97.86;100544.20;108998;1263;62901;-96
2023/03/17 01:01:30;;;;;;;18.60;15.20;;;;;;;9.37;97.70;100549.46;107426;1264;72334;-96
2023/03/17 01:04:25;;;;;;;20.50;16.70;;;;;;;9.38;97.30;100548.86;107675;1264;62370;-94
2023/03/17 01:06:58;;;;;;;20.00;16.60;;;;;;;9.35;97.12;100547.83;107900;1264;59332;-94
2023/03/17 01:10:28;;;;;;;20.00;15.40;;;;;;;9.42;97.56;100556.83;107058;1263;74959;-96
2023/03/17 01:13:16;;;;;;;20.40;16.80;;;;;;;9.44;97.19;100556.51;107465;1264;63284;-96
2023/03/17 01:16:14;;;;;;;23.50;17.00;;;;;;;9.45;97.12;100563.27;107962;1268;73907;-95
2023/03/17 01:19:16;;;;;;;19.30;16.80;;;;;;;9.51;97.31;100573.24;108140;1268;61145;-96
2023/03/17 01:22:12;;;;;;;;;;;;;;;9.62;97.26;100572.82;108846;1268;59047;-96
2023/03/17 01:25:03;;;;;;;20.90;17.20;;;;;;;9.68;96.74;100580.49;108769;1268;74173;-96
2023/03/17 01:28:02;;;;;;;21.50;16.30;;;;;;;9.72;96.33;100581.65;108452;1267;61703;-96
2023/03/17 01:30:49;;;;;;;21.00;16.10;;;;;;;9.74;96.17;100581.73;107991;1268;72208;-95
2023/03/17 01:33:25;;;;;;;20.60;15.90;;;;;;;9.73;95.67;100585.07;108327;1270;62433;-96
2023/03/17 01:35:55;;;;;;;21.80;16.50;;;;;;;9.70;95.47;100583.87;108435;1269;60950;-96
2023/03/17 01:38:38;;;;;;;22.00;15.50;;;;;;;9.67;95.99;100581.74;108300;1271;74253;-96
2023/03/17 01:41:29;;;;;;;21.80;16.30;;;;;;;9.74;96.24;100588.33;107120;1271;64439;-96
2023/03/17 01:44:23;;;;;;;23.10;16.80;;;;;;;9.76;95.96;100587.73;108060;1271;72449;-96
2023/03/17 01:47:04;;;;;;;21.70;18.00;;;;;;;9.76;95.49;100593.83;107760;1265;61063;-96
2023/03/17 01:50:05;;;;;;;26.60;18.40;;;;;;;9.72;95.02;100599.61;108288;1269;61573;-96
2023/03/17 01:53:20;;;;;;;22.00;17.30;;;;;;;9.71;95.29;100600.23;108418;1270;72457;-96
2023/03/17 01:56:15;;;;;;;23.40;16.10;;;;;;;9.71;95.31;100605.95;108196;1271;61888;-96
2023/03/17 01:59:23;;;;;;;20.70;16.30;;;;;;;9.64;94.99;100598.20;108828;1260;71894;-95
2023/03/17 02:02:08;;;;;;;21.70;16.80;;;;;;;9.63;95.09;100613.55;108977;1261;61957;-96
2023/03/17 02:04:50;;;;;;;22.10;16.80;;;;;;;9.60;95.62;100616.34;108597;1261;59763;-96
2023/03/17 02:07:23;;;;;;;22.40;16.80;;;;;;;9.62;95.92;100620.61;108764;1261;73078;-95
2023/03/17 02:10:16;;;;;;;25.20;17.30;;;;;;;9.68;96.13;100624.84;108012;1262;64251;-95
2023/03/17 02:12:55;;;;;;;20.10;16.10;;;;;;;9.73;95.98;100628.19;107698;1262;72824;-95
2023/03/17 02:15:50;;;;;;;21.70;16.40;;;;;;;9.78;95.83;100630.90;107144;1262;64679;-95
2023/03/17 02:18:20;;;;;;;21.80;16.50;;;;;;;9.78;95.39;100632.48;106798;1263;61112;-96
2023/03/17 02:20:56;;;;;;;20.60;16.70;;;;;;;9.72;94.97;100634.38;106946;1262;73486;-96
2023/03/17 02:23:26;;;;;;;19.90;16.60;;;;;;;9.73;95.38;100638.86;106676;1262;62778;-96
2023/03/17 02:25:55;;;;;;;24.40;17.60;;;;;;;9.73;95.44;100637.09;108925;1262;73453;-95
2023/03/17 02:28:27;;;;;;;20.70;16.00;;;;;;;9.72;95.13;100636.98;108682;1262;62270;-95
2023/03/17 02:30:58;;;;;;;19.40;16.00;;;;;;;9.68;94.94;100636.86;106256;1263;61424;-95
2023/03/17 02:33:28;;;;;;;17.20;14.50;;;;;;;9.66;95.07;100634.02;106414;1262;72773;-96
2023/03/17 02:36:02;;;;;;;19.50;16.00;;;;;;;9.60;95.18;100636.61;106424;1267;63152;-95
2023/03/17 02:38:34;;;;;;;19.70;14.90;;;;;;;9.57;95.30;100640.77;106651;1262;73598;-96
2023/03/17 02:41:08;;;;;;;20.50;15.50;;;;;;;9.49;95.33;100639.70;106185;1262;61127;-96
2023/03/17 02:43:37;;;;;;;24.80;16.10;;;;;;;9.42;95.51;100640.60;106654;1262;60388;-95
2023/03/17 02:46:07;;;;;;;21.40;15.20;;;;;;;9.34;95.81;100645.90;107115;1262;74674;-96
2023/03/17 02:48:39;;;;;;;19.30;15.70;;;;;;;9.27;96.11;100644.54;107444;1262;63370;-94
2023/03/17 02:51:21;;;;;;;26.00;16.80;;;;;;;9.24;96.35;100646.64;108395;1261;72437;-95
2023/03/17 02:53:58;;;;;;;22.10;14.90;;;;;;;9.19;96.78;100646.02;107458;1261;61082;-96
2023/03/17 02:56:27;;;;;;;18.40;15.60;;;;;;;9.20;97.39;100646.63;106364;1262;60531;-94
2023/03/17 02:59:01;;;;;;;17.80;15.70;;;;;;;9.23;97.42;100648.23;107526;1261;72959;-94
2023/03/17 03:01:32;;;;;;;20.80;17.50;;;;;;;9.21;97.37;100649.21;106811;1266;62891;-94
2023/03/17 03:04:03;;;;;;;18.60;14.20;;;;;;;9.20;97.74;100648.56;107357;1261;72843;-94
2023/03/17 03:06:33;;;;;;;19.30;15.10;;;;;;;9.24;97.84;100651.48;107154;1261;61141;-96
2023/03/17 03:09:04;;;;;;;20.10;15.20;;;;;;;9.24;97.78;100654.98;106144;1260;60579;-96
2023/03/17 03:11:34;;;;;;;20.50;15.30;;;;;;;9.23;97.71;100655.56;108455;1261;74170;-95
2023/03/17 03:14:26;;;;;;;21.40;15.00;;;;;;;9.22;97.96;100655.99;108902;1260;64200;-94
2023/03/17 03:16:59;;;;;;;18.00;13.50;;;;;;;9.24;97.92;100662.30;108848;1267;71555;-94
2023/03/17 03:19:55;;;;;;;19.10;15.70;;;;;;;9.19;97.93;100662.61;108622;1260;63063;-94
2023/03/17 03:22:29;;;;;;;18.10;14.90;;;;;;;9.21;98.25;100665.46;106949;1263;62939;-95
2023/03/17 03:24:59;;;;;;;18.60;14.20;;;;;;;9.22;98.37;100666.98;106596;1260;73947;-95
2023/03/17 03:27:29;;;;;;;20.70;14.40;;;;;;;9.23;98.39;100669.52;106472;1266;65067;-94
2023/03/17 03:29:58;;;;;;;18.20;14.30;;;;;;;9.29;98.55;100673.56;106052;1266;72386;-94
2023/03/17 03:32:28;;;;;;;18.20;15.00;;;;;;;9.37;98.76;100676.26;107738;1260;61802;-96
2023/03/17 03:34:58;;;;;;;24.40;14.10;;;;;;;9.43;98.26;100681.00;108100;1261;59999;-95
2023/03/17 03:37:32;;;;;;;16.80;14.00;;;;;;;9.41;97.86;100681.64;108756;1260;73767;-95
2023/03/17 03:40:03;;;;;;;15.20;12.10;;;;;;;9.38;97.72;100683.36;107042;1265;61965;-96
2023/03/17 03:42:32;;;;;;;15.20;12.90;;;;;;;9.39;97.72;100691.20;106093;1261;73161;-96
2023/03/17 03:45:20;;;;;;;14.70;12.30;;;;;;;9.33;97.41;100693.20;106798;1266;62010;-96
2023/03/17 03:48:41;;;;;;;16.30;12.90;;;;;;;9.28;97.44;100694.75;108868;1256;62130;31
2023/03/17 03:51:50;;;;;;;15.70;12.10;;;;;;;9.22;97.67;100698.16;108887;1266;74754;-95
2023/03/17 03:58:41;;;;;;;12.70;10.70;;;;;;;9.20;97.92;100705.81;107402;1265;59676;-94
2023/03/17 04:01:10;;;;;;;15.10;12.30;;;;;;;9.18;97.98;100708.54;108923;1265;60261;-95
2023/03/17 04:03:46;;;;;;;18.60;13.50;;;;;;;9.16;98.03;100711.41;108864;1265;73975;-94
2023/03/17 04:06:16;;;;;;;14.90;13.30;;;;;;;9.17;98.28;100715.54;108677;1261;64255;-93
2023/03/17 04:08:45;;;;;;;13.90;12.40;;;;;;;9.18;98.19;100712.86;107252;1259;567124;-96
2023/03/17 04:11:13;;;;;;;13.60;12.20;;;;;;;9.17;98.22;100717.47;109133;1259;61939;-95
2023/03/17 04:13:40;;;;;;;12.90;11.40;;;;;;;9.15;98.23;100721.05;109135;1258;60009;-96
2023/03/17 04:16:25;;;;;;;15.20;12.10;;;;;;;9.15;98.49;100725.09;109184;1259;72272;-94
2023/03/17 04:18:53;;;;;;;12.30;11.00;;;;;;;9.17;98.62;100723.27;107290;1257;63718;-94
2023/03/17 04:21:23;;;;;;;12.70;11.30;;;;;;;9.18;98.73;100725.45;107536;1257;72451;-94
2023/03/17 04:23:51;;;;;;;12.50;11.30;;;;;;;9.20;99.16;100723.44;106502;1257;62585;-95
2023/03/17 04:26:18;;;;;;;17.90;12.90;;;;;;;9.33;99.49;100727.05;106278;1257;61541;-95
2023/03/17 04:28:49;;;;;;;13.00;11.60;;;;;;;9.43;99.59;100720.80;106674;1261;73526;-94
2023/03/17 04:32:38;;;;;;;13.80;12.40;;;;;;;9.58;99.10;100727.35;104490;1289;601836;-95
2023/03/17 04:35:27;;;;;;;15.40;13.40;;;;;;;9.62;98.54;100730.63;105330;1274;60406;-94
2023/03/17 04:37:57;;;;;;;18.50;12.50;;;;;;;9.59;98.22;100731.83;105595;1273;62146;-95
2023/03/17 04:40:27;;;;;;;14.40;13.00;;;;;;;9.62;97.87;100737.59;105003;1273;74008;-94
2023/03/17 04:42:59;;;;;;;16.40;13.10;;;;;;;9.57;97.70;100736.43;106192;1280;64399;-95
2023/03/17 04:45:31;;;;;;;13.00;11.80;;;;;;;9.59;97.53;100743.69;105941;1271;862492;-93
2023/03/17 04:48:01;;;;;;;16.30;13.10;;;;;;;9.55;97.44;100745.61;108107;1259;60699;-94
2023/03/17 04:50:31;;;;;;;13.30;11.30;;;;;;;9.50;97.45;100751.13;108624;1259;59354;-94
2023/03/17 04:53:10;;;;;;;16.10;12.40;;;;;;;9.47;97.54;100750.43;109103;1260;71218;-94
2023/03/17 04:56:32;;;;;;;13.50;12.10;;;;;;;9.46;97.76;100753.95;106605;1286;612543;-93
2023/03/17 04:59:01;;;;;;;14.60;12.20;;;;;;;9.43;97.63;100752.90;107764;1273;62630;-93
2023/03/17 05:01:38;;;;;;;12.80;11.60;;;;;;;9.38;97.64;100757.89;106656;1256;60692;-95
2023/03/17 05:04:06;;;;;;;12.90;11.60;;;;;;;9.34;97.91;100759.48;106735;1257;72398;-93
2023/03/17 05:06:36;;;;;;;12.70;11.40;;;;;;;9.31;97.98;100761.38;106188;1257;66464;-96
2023/03/17 05:09:04;;;;;;;22.90;13.30;;;;;;;9.27;97.94;100762.45;105579;1254;664665;-95
2023/03/17 05:11:33;;;;;;;13.50;12.10;;;;;;;9.23;98.20;100767.40;106223;1261;62746;-95
2023/03/17 05:14:00;;;;;;;14.30;12.80;;;;;;;9.20;98.47;100769.10;106253;1259;60245;-94
2023/03/17 05:16:28;;;;;;;14.70;12.50;;;;;;;9.20;98.64;100769.98;107385;1254;72258;-95
2023/03/17 05:19:18;;;;;;;18.90;13.70;;;;;;;9.21;98.51;100773.91;107219;1254;62840;-94
2023/03/17 05:21:47;;;;;;;14.90;13.50;;;;;;;9.19;98.50;100776.16;107351;1259;72679;-95
2023/03/17 05:24:16;;;;;;;14.50;13.20;;;;;;;9.20;98.87;100773.66;106821;1254;61721;-96
2023/03/17 05:27:33;;;;;;;18.80;13.90;;;;;;;9.22;98.75;100778.61;109035;1254;60229;-93
2023/03/17 05:30:52;;;;;;;16.70;14.70;;;;;;;9.16;98.61;100784.52;109620;1251;73804;31
2023/03/17 05:34:32;;;;;;;17.20;14.30;;;;;;;9.11;98.51;100789.29;108885;1256;64053;-94
2023/03/17 05:37:11;;;;;;;19.50;15.40;;;;;;;9.12;98.86;100798.83;108285;1259;72604;-94
2023/03/17 05:40:12;;;;;;;18.50;16.30;;;;;;;9.14;98.77;100802.21;108613;1259;61814;-95
2023/03/17 05:43:02;;;;;;;18.50;16.00;;;;;;;9.12;98.66;100806.86;108092;1263;60303;-94
2023/03/17 05:45:40;;;;;;;22.10;15.20;;;;;;;9.12;98.85;100811.56;108205;1261;73308;-93
2023/03/17 05:48:11;;;;;;;19.90;17.70;;;;;;;9.08;98.56;100803.03;108207;1260;65278;-95
2023/03/17 05:50:55;;;;;;;25.30;17.30;;;;;;;9.08;98.80;100807.90;106493;1265;73842;-94
2023/03/17 05:53:24;;;;;;;19.90;17.40;;;;;;;9.10;99.15;100803.65;107201;1265;63710;-95
2023/03/17 05:55:52;;;;;;;20.20;17.70;;;;;;;9.12;99.05;100807.56;108100;1265;60184;-94
2023/03/17 05:58:24;;;;;;;22.60;18.10;;;;;;;9.10;99.14;100808.02;108178;1265;72991;-95
2023/03/17 06:01:00;;;;;;;22.80;17.90;;;;;;;9.11;99.35;100810.90;106788;1265;62222;-95
2023/03/17 06:03:29;;;;;;;22.50;20.10;;;;;;;9.13;99.21;100811.70;107573;1265;73007;-96
2023/03/17 06:06:15;;;;;;;21.00;18.70;;;;;;;9.15;99.17;100817.86;107825;1265;61218;-96
2023/03/17 06:08:56;;;;;;;20.50;18.30;;;;;;;9.16;99.16;100820.77;106942;1268;60230;-96
2023/03/17 06:11:26;;;;;;;21.60;19.20;;;;;;;9.20;99.16;100826.70;106924;1268;73204;-96
2023/03/17 06:13:55;;;;;;;24.80;19.40;;;;;;;9.19;98.88;100821.16;107678;1263;63955;-94
2023/03/17 06:16:57;;;;;;;24.70;19.40;;;;;;;9.23;98.86;100825.30;108959;1264;74196;-96
2023/03/17 06:19:45;;;;;;;23.00;19.30;;;;;;;9.24;98.76;100827.01;108663;1252;62000;-91
2023/03/17 06:22:24;;;;;;;;;;;;;;;9.23;98.81;100820.41;109303;1257;61778;-94
2023/03/17 06:24:52;;;;;;;20.00;16.80;;;;;;;9.24;98.14;100822.83;109272;1257;73017;-94
2023/03/17 06:27:51;;;;;;;22.20;18.20;;;;;;;9.15;97.98;100823.80;109142;1255;64250;-95
2023/03/17 06:30:30;;;;;;;22.10;19.60;;;;;;;9.07;97.94;100825.27;109272;1257;72703;-95
2023/03/17 06:33:02;;;;;;;21.80;18.30;;;;;;;9.00;97.93;100832.39;108975;1257;60137;-96
2023/03/17 06:35:31;;;;;;;19.70;17.00;;;;;;;8.93;98.14;100833.23;107731;1257;59807;-95
2023/03/17 06:38:04;;;;;;;28.40;19.10;;;;;;;8.90;98.22;100838.09;108410;1257;71781;-96
2023/03/17 06:40:43;;;;;;;21.60;17.50;;;;;;;8.86;98.32;100835.52;108379;1257;62212;-96
2023/03/17 06:43:23;;;;;;;22.20;16.80;;;;;;;8.83;98.45;100838.27;108026;1259;73742;-96
2023/03/17 06:46:37;;;;;;;20.40;16.30;;;;;;;8.86;98.60;100837.29;107729;1257;62101;-95
2023/03/17 06:49:12;;;;;;;19.80;15.90;;;;;;;8.90;98.50;100841.09;107258;1257;62039;-93
2023/03/17 06:52:05;;;;;;;19.00;15.10;;;;;;;8.93;98.53;100842.84;109079;1257;71113;-96
2023/03/17 06:55:28;;;;;;;21.50;17.10;;;;;;;8.93;98.06;100850.51;108431;1257;62496;-96
2023/03/17 06:58:26;;;;;;;17.50;15.00;;;;;;;8.94;98.29;100854.85;108988;1251;72883;31
2023/03/17 07:05:02;;;;;;;18.00;15.20;;;;;;;9.07;98.22;100861.33;108649;1267;59643;-96
2023/03/17 07:07:35;;;;;;;17.10;14.70;;;;;;;9.12;97.99;100863.03;108831;1267;72419;-96
2023/03/17 07:10:32;;;;;;;20.60;14.80;;;;;;;9.17;97.71;100866.93;108695;1258;63990;-96
2023/03/17 07:13:07;;;;;;;23.90;18.00;;;;;;;9.22;97.12;100866.02;108326;1260;72458;-93
2023/03/17 07:15:39;;;;;;;21.00;18.80;;;;;;;9.23;97.25;100864.02;108017;1261;62791;-93
2023/03/17 07:18:31;;;;;;;18.90;15.50;;;;;;;9.26;96.78;100863.87;108232;1255;61711;-92
2023/03/17 07:25:11;;;;;;;20.50;16.50;;;;;;;9.24;96.14;100867.30;108179;1265;65141;-93
2023/03/17 07:27:55;;;;;;;24.50;18.50;;;;;;;9.21;96.15;100869.53;107835;1268;71852;-95
2023/03/17 07:34:29;;;;;;;18.10;16.20;;;;;;;9.22;95.95;100875.75;108973;1260;59763;-93
2023/03/17 07:37:12;;;;;;;19.40;17.00;;;;;;;9.23;95.94;100876.42;108900;1262;73507;-95
2023/03/17 07:40:44;;;;;;;20.80;15.30;;;;;;;9.24;96.01;100880.91;108963;1262;63937;-94
2023/03/17 07:43:56;;;;;;;19.90;16.80;;;;;;;9.30;96.03;100884.61;107965;1262;74638;-94
2023/03/17 07:46:59;;;;;;;19.20;16.80;;;;;;;9.32;95.94;100883.96;108678;1261;60446;-95
2023/03/17 07:49:45;;;;;;;18.00;16.00;;;;;;;9.34;95.52;100881.10;108404;1261;61026;-96
2023/03/17 07:52:20;;;;;;;19.90;16.30;;;;;;;9.37;95.24;100888.80;107536;1262;73378;-94
2023/03/17 07:54:51;;;;;;;18.10;15.20;;;;;;;9.40;95.19;100896.02;108527;1262;64589;-95
2023/03/17 07:57:30;;;;;;;19.50;16.10;;;;;;;9.47;95.11;100894.23;107192;1262;72406;-96
2023/03/17 08:00:29;;;;;;;18.40;16.00;;;;;;;9.55;94.85;100894.70;108010;1262;60974;-95
2023/03/17 08:03:18;;;;;;;17.90;15.30;;;;;;;9.62;94.75;100897.31;107781;1262;60169;-96
2023/03/17 08:13:20;;;;;;;17.40;14.70;;;;;;;9.77;93.30;100910.52;108521;1267;72027;-96
2023/03/17 08:16:23;;;;;;;16.70;14.90;;;;;;;9.69;92.71;100915.26;107960;1271;61364;-95
2023/03/17 08:19:11;;;;;;;15.80;14.20;;;;;;;9.65;92.85;100919.30;107858;1267;60488;-96
2023/03/17 08:22:09;;;;;;;21.30;16.00;;;;;;;9.67;93.06;100917.27;107686;1267;72506;-94
2023/03/17 08:25:21;;;;;;;19.40;16.40;;;;;;;9.70;93.00;100918.54;107477;1267;65700;-95
2023/03/17 08:28:02;;;;;;;18.00;16.10;;;;;;;9.71;92.77;100919.67;108076;1268;74368;-95
2023/03/17 08:31:13;;;;;;;17.50;15.60;;;;;;;9.72;92.72;100918.58;107955;1267;63026;-96
2023/03/17 08:33:55;;;;;;;20.00;15.80;;;;;;;9.77;92.71;100921.49;106462;1275;61072;-95
2023/03/17 08:36:24;;;;;;;21.40;18.10;;;;;;;9.80;92.53;100922.73;106879;1271;72994;-95
2023/03/17 08:39:29;;;;;;;19.70;17.00;;;;;;;9.84;92.71;100921.85;106622;1271;64917;-95
2023/03/17 08:45:25;;;;;;;19.60;16.20;;;;;;;9.98;92.08;100926.33;102580;1267;985677;-93
2023/03/17 08:48:06;;;;;;;22.40;16.30;;;;;;;9.98;91.52;100920.89;108546;1268;61732;-95
2023/03/17 08:50:36;;;;;;;16.60;14.80;;;;;;;9.96;91.18;100917.67;108327;1268;73173;-94
2023/03/17 08:53:04;;;;;;;17.90;14.50;;;;;;;9.91;90.86;100922.86;108715;1267;64938;-95
2023/03/17 08:55:45;;;;;;;17.50;15.00;;;;;;;9.85;90.91;100925.29;108743;1267;73930;-94
2023/03/17 08:58:55;;;;;;;20.10;15.20;;;;;;;9.79;91.37;100927.83;108732;1268;62002;-95
2023/03/17 09:01:38;;;;;;;17.10;14.70;;;;;;;9.81;91.48;100932.46;107173;1267;59537;-94
2023/03/17 09:04:08;;;;;;;15.60;13.30;;;;;;;9.83;91.55;100930.42;107455;1268;72880;-94
2023/03/17 09:06:54;;;;;;;15.80;13.80;;;;;;;9.85;91.38;100930.15;107268;1267;63775;-95
2023/03/17 09:09:51;;;;;;;64.60;52.70;;;;;;;9.82;91.02;100932.95;107548;1267;70676;-95
2023/03/17 09:12:27;;;;;;;26.20;22.40;;;;;;;9.78;90.62;100939.08;107919;1271;61329;-93
2023/03/17 09:15:11;;;;;;;17.40;14.40;;;;;;;9.74;90.86;100942.05;106903;1271;61806;-94
2023/03/17 09:21:22;;;;;;;17.80;13.20;;;;;;;9.79;90.97;100942.33;107872;1273;64175;-95
2023/03/17 09:24:54;;;;;;;15.80;13.30;;;;;;;9.85;90.93;100945.36;108567;1267;71482;-95
2023/03/17 09:27:30;;;;;;;15.80;14.10;;;;;;;9.89;90.81;100947.27;107872;1267;60395;-96
2023/03/17 09:30:05;;;;;;;18.00;14.40;;;;;;;9.93;90.88;100951.38;108149;1267;60138;-93
2023/03/17 09:32:37;;;;;;;15.80;13.90;;;;;;;9.99;90.45;100954.26;108395;1268;73071;-93
2023/03/17 09:35:41;;;;;;;14.70;13.30;;;;;;;10.02;89.97;100956.52;108734;1268;64191;-96
2023/03/17 09:38:33;;;;;;;16.00;12.00;;;;;;;10.02;89.71;100960.19;107735;1267;72830;-96
2023/03/17 09:41:36;;;;;;;14.80;13.30;;;;;;;10.04;89.55;100971.77;108719;1268;61816;-95
2023/03/17 09:44:41;;;;;;;13.80;12.40;;;;;;;10.09;89.77;100975.58;108703;1266;60401;-95
2023/03/17 09:48:11;;;;;;;14.20;12.80;;;;;;;10.10;89.09;100977.96;108633;1267;73091;-96
2023/03/17 09:51:11;;;;;;;13.40;11.90;;;;;;;10.09;88.64;100980.60;107533;1268;64135;-95
2023/03/17 09:54:23;;;;;;;17.70;15.20;;;;;;;10.14;88.48;100982.08;107972;1268;72874;-96
2023/03/17 09:57:41;;;;;;;13.70;12.50;;;;;;;10.15;88.05;100986.05;107920;1268;60466;-95
2023/03/17 10:00:46;;;;;;;12.70;11.40;;;;;;;10.12;87.72;100984.98;106731;1274;60433;-94
2023/03/17 10:03:30;;;;;;;13.90;12.50;;;;;;;10.07;87.80;100984.90;107515;1274;73905;-95
2023/03/17 10:06:24;;;;;;;;;;;;;;;10.04;87.96;100989.75;106965;1273;63229;-94
2023/03/17 10:10:04;;;;;;;10.80;9.90;;;;;;;9.99;88.21;100984.63;106320;1274;72989;-94
2023/03/17 10:13:47;;;;;;;13.10;11.80;;;;;;;9.92;88.01;100982.52;107124;1273;64311;-96
2023/03/17 10:17:05;;;;;;;21.90;18.80;;;;;;;9.86;87.96;100980.38;107583;1274;59336;-95
2023/03/17 10:20:13;;;;;;;14.90;13.30;;;;;;;9.84;87.85;100979.96;107432;1273;74810;-96
2023/03/17 10:23:37;;;;;;;13.20;11.70;;;;;;;9.86;87.91;100980.08;106750;1261;61875;-93
2023/03/17 10:29:41;;;;;;;13.10;11.60;;;;;;;9.83;87.97;100981.98;104854;1270;60913;-95
2023/03/17 10:32:47;;;;;;;12.60;11.40;;;;;;;9.82;88.18;100984.11;107356;1270;60227;-94
2023/03/17 10:35:39;;;;;;;11.40;10.20;;;;;;;9.81;88.24;100979.59;107525;1267;76796;-95
2023/03/17 10:39:28;;;;;;;11.60;10.50;;;;;;;9.84;88.23;100980.67;108644;1270;64485;-95
2023/03/17 10:42:14;;;;;;;12.10;10.90;;;;;;;9.89;88.10;100988.80;107155;1270;73259;-96
2023/03/17 10:45:15;;;;;;;;;;;;;;;9.91;88.03;100988.88;107141;1270;60478;-96
2023/03/17 10:47:58;;;;;;;12.50;11.20;;;;;;;9.96;87.58;100998.05;107215;1270;60547;-94
2023/03/17 10:50:55;;;;;;;12.50;11.20;;;;;;;9.96;87.64;101000.48;107145;1269;73917;-95
2023/03/17 10:53:27;;;;;;;11.80;10.70;;;;;;;9.99;87.60;101005.58;107259;1270;67346;-95
2023/03/17 10:56:42;;;;;;;10.10;9.10;;;;;;;10.01;87.55;101002.86;107469;1267;73919;-96
2023/03/17 10:59:44;;;;;;;10.50;9.60;;;;;;;10.02;87.33;101010.55;107727;1267;62837;-96
2023/03/17 11:02:47;;;;;;;9.50;8.50;;;;;;;9.98;87.18;101013.65;107252;1267;60332;-96
2023/03/17 11:05:27;;;;;;;8.30;7.50;;;;;;;9.87;87.42;101013.86;107880;1268;72631;-96
2023/03/17 11:08:24;;;;;;;7.70;7.00;;;;;;;9.79;87.95;101018.50;108667;1267;64144;-91
2023/03/17 11:11:27;;;;;;;9.10;8.30;;;;;;;9.81;88.56;101019.77;108614;1270;74380;-95
2023/03/17 11:14:44;;;;;;;9.80;8.10;;;;;;;9.90;88.30;101012.15;108041;1264;60660;-94
2023/03/17 11:22:27;;;;;;;9.60;8.60;;;;;;;9.92;87.67;101023.38;108725;1269;72759;-96
2023/03/17 11:25:37;;;;;;;8.50;7.70;;;;;;;9.87;87.62;101012.10;108184;1269;63205;-94
2023/03/17 11:28:30;;;;;;;8.30;7.50;;;;;;;9.90;87.58;101020.00;106662;1276;72785;-92
2023/03/17 11:31:11;;;;;;;8.70;7.80;;;;;;;9.90;87.83;101020.00;107264;1269;61752;-94
2023/03/17 11:34:04;;;;;;;;;;;;;;;9.90;88.02;101022.27;107924;1270;60055;-95
2023/03/17 11:54:28;;;;;;;7.90;7.10;;;;;;;10.03;86.59;101042.23;102849;1266;75055;-94
2023/03/17 11:57:51;;;;;;;8.10;7.30;;;;;;;10.02;86.36;101044.37;108005;1270;63279;-96
2023/03/17 12:00:31;;;;;;;8.80;7.40;;;;;;;9.97;86.61;101051.12;107083;1270;73903;-94
2023/03/17 12:04:04;;;;;;;8.40;7.60;;;;;;;9.92;86.58;101050.27;108089;1269;61025;-95
2023/03/17 12:07:46;;;;;;;7.80;7.10;;;;;;;9.89;86.79;101049.95;108061;1270;60257;-96
2023/03/17 12:21:56;;;;;;;10.20;9.30;;;;;;;9.67;87.39;101059.93;107736;1278;59574;-96
2023/03/17 12:37:26;;;;;;;9.90;9.00;;;;;;;9.37;87.84;101068.02;94638;1273;71846;-96
2023/03/17 12:47:33;;;;;;;11.60;10.60;;;;;;;9.34;87.94;101072.17;107716;1270;73260;-94
2023/03/17 12:53:50;;;;;;;12.30;11.20;;;;;;;9.39;87.41;101083.63;107974;1269;70812;-96
2023/03/17 12:56:30;;;;;;;11.30;10.30;;;;;;;9.39;87.48;101087.30;105856;1281;60613;-94
2023/03/17 12:59:42;;;;;;;12.90;11.50;;;;;;;9.41;87.27;101090.87;105933;1276;60415;-94
2023/03/17 13:02:28;;;;;;;12.10;11.00;;;;;;;9.44;87.30;101094.18;106253;1281;74976;-95
2023/03/17 13:05:45;;;;;;;11.60;10.50;;;;;;;9.46;87.12;101097.08;106643;1276;65240;-94
2023/03/17 13:08:50;;;;;;;11.80;10.60;;;;;;;9.35;86.73;101086.41;106958;1280;72023;-93
2023/03/17 13:11:26;;;;;;;11.20;10.30;;;;;;;9.26;86.96;101086.48;106568;1279;62044;-96
2023/03/17 13:13:53;;;;;;;10.10;9.20;;;;;;;9.23;87.38;101089.29;107505;1279;60400;-95
2023/03/17 13:16:36;;;;;;;10.80;9.80;;;;;;;9.18;87.68;101092.98;107646;1280;74023;-95
2023/03/17 13:19:31;;;;;;;11.30;10.20;;;;;;;9.16;87.93;101085.58;106606;1283;63214;-93
2023/03/17 13:22:05;;;;;;;11.60;10.20;;;;;;;9.14;87.89;101089.69;107008;1282;72754;-95
2023/03/17 13:24:56;;;;;;;12.00;10.90;;;;;;;9.12;87.84;101092.02;107211;1267;59325;31
2023/03/17 13:28:11;;;;;;;14.60;13.20;;;;;;;9.05;87.86;101097.41;107930;1267;59810;31
2023/03/17 17:00:01;;;;;;;22.30;12.40;;;;;;;7.67;91.73;101308.14;107085;1283;612711;-94
2023/03/17 17:03:15;;;;;;;26.90;13.40;;;;;;;7.76;90.98;101317.73;106597;1272;2202806;-96
2023/03/17 17:06:45;;;;;;;24.20;12.80;;;;;;;7.75;90.95;101327.86;108735;1269;60667;-96
2023/03/17 17:19:41;;;;;;;26.70;13.10;;;;;;;7.70;91.01;101348.92;107427;1283;60428;-95
2023/03/17 17:22:29;;;;;;;25.50;13.50;;;;;;;7.71;90.95;101350.65;107927;1275;58456;-94
2023/03/17 17:43:00;;;;;;;26.30;14.30;;;;;;;7.67;90.29;101356.02;107965;1272;72270;-94
2023/03/17 17:50:14;;;;;;;23.50;15.30;;;;;;;7.54;90.55;101353.48;91654;1271;71440;31
2023/03/17 17:53:51;;;;;;;;;;;;;;;7.41;91.13;101354.45;107724;1276;61305;-94
2023/03/17 17:57:24;;;;;;;33.70;17.70;;;;;;;7.32;91.44;101355.13;107922;1268;59427;-90
2023/03/17 18:03:00;;;;;;;30.30;15.30;;;;;;;7.24;91.98;101355.24;109100;1259;613622;31
2023/03/17 18:10:37;;;;;;;27.50;15.70;;;;;;;7.16;92.64;101349.24;111011;1244;59509;-96
2023/03/17 18:18:07;;;;;;;23.00;14.60;;;;;;;7.18;92.47;101359.27;107778;1233;66569;-94
2023/03/17 18:24:53;;;;;;;24.80;16.20;;;;;;;7.27;92.51;101358.11;111919;1234;59665;-94
2023/03/17 18:35:23;;;;;;;31.30;19.80;;;;;;;7.31;91.98;101368.76;112285;1234;71254;-95
2023/03/17 18:38:12;;;;;;;31.80;18.30;;;;;;;7.31;91.78;101373.45;112227;1234;62544;-96
2023/03/17 18:41:34;;;;;;;33.90;18.90;;;;;;;7.30;91.63;101370.70;111889;1234;59988;-96
2023/03/17 18:45:08;;;;;;;34.80;20.30;;;;;;;7.32;91.61;101372.19;112298;1235;73537;-96
2023/03/17 18:48:15;;;;;;;40.90;19.60;;;;;;;7.31;91.11;101375.02;112059;1233;63860;31